Green Valley, Nevada
Current Conditions -  °F | °C
As of 9:56 PM on Tuesday 25 Nov 2014 (Local Time) from KLAS Reporting Station
Clear Clear  
Wind Chill: 50°   Ceiling: Unl
Heat Index: 50°   Visibility: 10mi
Dew Point: 15°   Wind: 8mph
Humidity: 25%   Direction: 210°SSW
Pressure: 30.36"   Gusts: NA
Location:  36.0622°N, 115.056°W
Report Text: KLAS 260556Z 21007KT 10SM CLR 10/M09 A3036 RMK AO2 SLP276 T01001094 10161 20100 51008
Loading
Personal Weather Stations






























Interactive Weather Map New forecast layout! Learn more

10-Day Weather Forecast

Advertisements
Track Severe Weather on mobile